sensor_id;sensor_type;location;lat;lon;timestamp;P1;durP1;ratioP1;P2;durP2;ratioP2
7831;SDS011;3961;42.058;25.586;2023-05-27T00:00:25;16.23;;;7.60;;
7831;SDS011;3961;42.058;25.586;2023-05-27T00:02:51;9.40;;;7.00;;
7831;SDS011;3961;42.058;25.586;2023-05-27T00:05:16;11.43;;;7.37;;
7831;SDS011;3961;42.058;25.586;2023-05-27T00:07:42;12.83;;;7.57;;
7831;SDS011;3961;42.058;25.586;2023-05-27T00:10:07;13.10;;;7.93;;
7831;SDS011;3961;42.058;25.586;2023-05-27T00:12:33;11.83;;;7.57;;
7831;SDS011;3961;42.058;25.586;2023-05-27T00:14:58;15.90;;;8.57;;
7831;SDS011;3961;42.058;25.586;2023-05-27T00:17:24;12.63;;;7.97;;
7831;SDS011;3961;42.058;25.586;2023-05-27T00:19:51;13.73;;;9.23;;
7831;SDS011;3961;42.058;25.586;2023-05-27T00:22:17;9.97;;;8.17;;
7831;SDS011;3961;42.058;25.586;2023-05-27T00:24:42;13.77;;;8.53;;
7831;SDS011;3961;42.058;25.586;2023-05-27T00:27:08;11.33;;;8.50;;
7831;SDS011;3961;42.058;25.586;2023-05-27T00:29:36;11.20;;;8.27;;
7831;SDS011;3961;42.058;25.586;2023-05-27T00:32:01;10.13;;;8.00;;
7831;SDS011;3961;42.058;25.586;2023-05-27T00:34:28;14.87;;;8.43;;
7831;SDS011;3961;42.058;25.586;2023-05-27T00:36:54;12.33;;;8.40;;
7831;SDS011;3961;42.058;25.586;2023-05-27T00:39:20;12.77;;;8.30;;
7831;SDS011;3961;42.058;25.586;2023-05-27T00:41:47;9.63;;;8.47;;
7831;SDS011;3961;42.058;25.586;2023-05-27T00:44:14;11.50;;;9.00;;
7831;SDS011;3961;42.058;25.586;2023-05-27T00:46:40;17.93;;;8.90;;
7831;SDS011;3961;42.058;25.586;2023-05-27T00:49:05;12.33;;;8.77;;
7831;SDS011;3961;42.058;25.586;2023-05-27T00:51:31;10.63;;;9.43;;
7831;SDS011;3961;42.058;25.586;2023-05-27T00:53:57;13.07;;;9.17;;
7831;SDS011;3961;42.058;25.586;2023-05-27T00:56:22;11.73;;;9.00;;
7831;SDS011;3961;42.058;25.586;2023-05-27T00:58:48;11.37;;;9.97;;
7831;SDS011;3961;42.058;25.586;2023-05-27T01:01:13;14.10;;;9.27;;
7831;SDS011;3961;42.058;25.586;2023-05-27T01:03:39;14.07;;;10.00;;
7831;SDS011;3961;42.058;25.586;2023-05-27T01:11:23;13.90;;;9.23;;
7831;SDS011;3961;42.058;25.586;2023-05-27T01:13:57;14.60;;;9.30;;
7831;SDS011;3961;42.058;25.586;2023-05-27T01:16:26;10.80;;;9.23;;
7831;SDS011;3961;42.058;25.586;2023-05-27T01:18:53;10.97;;;9.13;;
7831;SDS011;3961;42.058;25.586;2023-05-27T01:21:21;15.30;;;9.00;;
7831;SDS011;3961;42.058;25.586;2023-05-27T01:23:50;15.43;;;9.77;;
7831;SDS011;3961;42.058;25.586;2023-05-27T01:26:16;14.00;;;8.90;;
7831;SDS011;3961;42.058;25.586;2023-05-27T01:28:41;11.73;;;9.40;;
7831;SDS011;3961;42.058;25.586;2023-05-27T01:31:12;14.83;;;9.63;;
7831;SDS011;3961;42.058;25.586;2023-05-27T01:33:42;15.83;;;9.40;;
7831;SDS011;3961;42.058;25.586;2023-05-27T01:36:16;19.00;;;9.40;;
7831;SDS011;3961;42.058;25.586;2023-05-27T01:38:45;14.70;;;9.73;;
7831;SDS011;3961;42.058;25.586;2023-05-27T01:41:12;14.37;;;9.43;;
7831;SDS011;3961;42.058;25.586;2023-05-27T01:43:40;14.27;;;9.50;;
7831;SDS011;3961;42.058;25.586;2023-05-27T01:46:07;13.87;;;9.00;;
7831;SDS011;3961;42.058;25.586;2023-05-27T01:48:32;13.03;;;9.37;;
7831;SDS011;3961;42.058;25.586;2023-05-27T01:50:58;12.60;;;8.63;;
7831;SDS011;3961;42.058;25.586;2023-05-27T01:53:23;15.03;;;9.57;;
7831;SDS011;3961;42.058;25.586;2023-05-27T01:55:49;12.10;;;9.10;;
7831;SDS011;3961;42.058;25.586;2023-05-27T01:58:14;11.20;;;8.40;;
7831;SDS011;3961;42.058;25.586;2023-05-27T02:00:40;12.53;;;8.80;;
7831;SDS011;3961;42.058;25.586;2023-05-27T02:03:06;16.97;;;9.00;;
7831;SDS011;3961;42.058;25.586;2023-05-27T02:05:32;11.43;;;9.13;;
7831;SDS011;3961;42.058;25.586;2023-05-27T02:07:57;16.90;;;9.00;;
7831;SDS011;3961;42.058;25.586;2023-05-27T02:10:23;14.83;;;8.47;;
7831;SDS011;3961;42.058;25.586;2023-05-27T02:12:48;15.40;;;8.13;;
7831;SDS011;3961;42.058;25.586;2023-05-27T02:15:14;11.20;;;8.80;;
7831;SDS011;3961;42.058;25.586;2023-05-27T02:17:39;12.13;;;8.53;;
7831;SDS011;3961;42.058;25.586;2023-05-27T02:20:05;12.17;;;8.47;;
7831;SDS011;3961;42.058;25.586;2023-05-27T02:22:31;14.23;;;8.53;;
7831;SDS011;3961;42.058;25.586;2023-05-27T02:24:56;12.47;;;8.70;;
7831;SDS011;3961;42.058;25.586;2023-05-27T02:27:22;13.90;;;9.60;;
7831;SDS011;3961;42.058;25.586;2023-05-27T02:29:47;11.73;;;8.70;;
7831;SDS011;3961;42.058;25.586;2023-05-27T02:32:13;13.37;;;9.20;;
7831;SDS011;3961;42.058;25.586;2023-05-27T02:34:38;11.70;;;9.13;;
7831;SDS011;3961;42.058;25.586;2023-05-27T02:37:06;11.03;;;8.20;;
7831;SDS011;3961;42.058;25.586;2023-05-27T02:39:32;10.60;;;8.43;;
7831;SDS011;3961;42.058;25.586;2023-05-27T02:41:57;12.50;;;8.77;;
7831;SDS011;3961;42.058;25.586;2023-05-27T02:44:24;8.77;;;6.83;;
7831;SDS011;3961;42.058;25.586;2023-05-27T02:46:49;13.80;;;7.87;;
7831;SDS011;3961;42.058;25.586;2023-05-27T02:49:15;12.10;;;7.80;;
7831;SDS011;3961;42.058;25.586;2023-05-27T02:51:42;8.90;;;7.90;;
7831;SDS011;3961;42.058;25.586;2023-05-27T02:54:07;11.63;;;7.63;;
7831;SDS011;3961;42.058;25.586;2023-05-27T02:56:33;8.53;;;7.23;;
7831;SDS011;3961;42.058;25.586;2023-05-27T02:58:58;9.73;;;7.17;;
7831;SDS011;3961;42.058;25.586;2023-05-27T03:01:23;10.83;;;7.80;;
7831;SDS011;3961;42.058;25.586;2023-05-27T03:03:49;11.13;;;7.23;;
7831;SDS011;3961;42.058;25.586;2023-05-27T03:06:15;8.60;;;7.57;;
7831;SDS011;3961;42.058;25.586;2023-05-27T03:08:41;8.97;;;7.40;;
7831;SDS011;3961;42.058;25.586;2023-05-27T03:11:06;15.53;;;7.67;;
7831;SDS011;3961;42.058;25.586;2023-05-27T03:13:32;10.70;;;7.60;;
7831;SDS011;3961;42.058;25.586;2023-05-27T03:15:57;11.17;;;8.23;;
7831;SDS011;3961;42.058;25.586;2023-05-27T03:18:23;10.40;;;7.77;;
7831;SDS011;3961;42.058;25.586;2023-05-27T03:20:49;10.70;;;7.90;;
7831;SDS011;3961;42.058;25.586;2023-05-27T03:23:15;8.77;;;7.47;;
7831;SDS011;3961;42.058;25.586;2023-05-27T03:25:40;9.70;;;7.37;;
7831;SDS011;3961;42.058;25.586;2023-05-27T03:28:06;9.43;;;7.40;;
7831;SDS011;3961;42.058;25.586;2023-05-27T03:30:31;8.87;;;7.43;;
7831;SDS011;3961;42.058;25.586;2023-05-27T03:32:57;8.63;;;7.00;;
7831;SDS011;3961;42.058;25.586;2023-05-27T03:35:23;11.00;;;7.67;;
7831;SDS011;3961;42.058;25.586;2023-05-27T03:37:48;12.87;;;7.47;;
7831;SDS011;3961;42.058;25.586;2023-05-27T03:40:14;13.33;;;7.77;;
7831;SDS011;3961;42.058;25.586;2023-05-27T03:42:39;12.73;;;6.90;;
7831;SDS011;3961;42.058;25.586;2023-05-27T03:45:05;10.30;;;7.10;;
7831;SDS011;3961;42.058;25.586;2023-05-27T03:47:31;9.57;;;6.70;;
7831;SDS011;3961;42.058;25.586;2023-05-27T03:49:57;10.43;;;6.50;;
7831;SDS011;3961;42.058;25.586;2023-05-27T03:52:22;6.77;;;6.07;;
7831;SDS011;3961;42.058;25.586;2023-05-27T03:54:47;11.00;;;5.80;;
7831;SDS011;3961;42.058;25.586;2023-05-27T03:57:13;13.60;;;5.90;;
7831;SDS011;3961;42.058;25.586;2023-05-27T03:59:38;7.80;;;6.00;;
7831;SDS011;3961;42.058;25.586;2023-05-27T04:02:04;12.30;;;7.10;;
7831;SDS011;3961;42.058;25.586;2023-05-27T04:04:30;8.87;;;6.07;;
7831;SDS011;3961;42.058;25.586;2023-05-27T04:06:55;13.07;;;7.10;;
7831;SDS011;3961;42.058;25.586;2023-05-27T04:09:21;9.43;;;6.63;;
7831;SDS011;3961;42.058;25.586;2023-05-27T04:11:47;10.50;;;6.33;;
7831;SDS011;3961;42.058;25.586;2023-05-27T04:14:12;17.40;;;7.03;;
7831;SDS011;3961;42.058;25.586;2023-05-27T04:16:38;18.87;;;6.77;;
7831;SDS011;3961;42.058;25.586;2023-05-27T04:19:06;7.77;;;6.17;;
7831;SDS011;3961;42.058;25.586;2023-05-27T04:21:32;11.17;;;6.73;;
7831;SDS011;3961;42.058;25.586;2023-05-27T04:23:57;9.93;;;6.93;;
7831;SDS011;3961;42.058;25.586;2023-05-27T04:26:23;10.63;;;6.50;;
7831;SDS011;3961;42.058;25.586;2023-05-27T04:28:49;8.97;;;6.10;;
7831;SDS011;3961;42.058;25.586;2023-05-27T04:31:14;20.43;;;7.43;;
7831;SDS011;3961;42.058;25.586;2023-05-27T04:33:41;9.60;;;6.73;;
7831;SDS011;3961;42.058;25.586;2023-05-27T04:36:07;9.37;;;6.50;;
7831;SDS011;3961;42.058;25.586;2023-05-27T04:38:33;9.33;;;6.37;;
7831;SDS011;3961;42.058;25.586;2023-05-27T04:40:59;11.90;;;6.30;;
7831;SDS011;3961;42.058;25.586;2023-05-27T04:43:25;16.03;;;8.67;;
7831;SDS011;3961;42.058;25.586;2023-05-27T04:45:55;17.57;;;7.37;;
7831;SDS011;3961;42.058;25.586;2023-05-27T04:48:27;12.20;;;6.87;;
7831;SDS011;3961;42.058;25.586;2023-05-27T04:50:53;15.73;;;8.77;;
7831;SDS011;3961;42.058;25.586;2023-05-27T04:53:18;18.10;;;9.33;;
7831;SDS011;3961;42.058;25.586;2023-05-27T04:55:44;19.40;;;8.93;;
7831;SDS011;3961;42.058;25.586;2023-05-27T04:58:11;10.40;;;6.97;;
7831;SDS011;3961;42.058;25.586;2023-05-27T05:00:37;17.03;;;8.17;;
7831;SDS011;3961;42.058;25.586;2023-05-27T05:03:17;11.60;;;7.97;;
7831;SDS011;3961;42.058;25.586;2023-05-27T05:05:48;20.57;;;10.50;;
7831;SDS011;3961;42.058;25.586;2023-05-27T05:08:15;19.17;;;9.93;;
7831;SDS011;3961;42.058;25.586;2023-05-27T05:10:40;15.47;;;7.40;;
7831;SDS011;3961;42.058;25.586;2023-05-27T05:13:06;14.27;;;8.03;;
7831;SDS011;3961;42.058;25.586;2023-05-27T05:15:31;11.43;;;7.50;;
7831;SDS011;3961;42.058;25.586;2023-05-27T05:17:57;13.93;;;8.73;;
7831;SDS011;3961;42.058;25.586;2023-05-27T05:20:22;11.70;;;9.40;;
7831;SDS011;3961;42.058;25.586;2023-05-27T05:22:47;16.47;;;9.43;;
7831;SDS011;3961;42.058;25.586;2023-05-27T05:25:13;14.50;;;7.60;;
7831;SDS011;3961;42.058;25.586;2023-05-27T05:27:40;18.63;;;8.70;;
7831;SDS011;3961;42.058;25.586;2023-05-27T05:30:06;18.43;;;8.47;;
7831;SDS011;3961;42.058;25.586;2023-05-27T05:32:32;11.10;;;7.83;;
7831;SDS011;3961;42.058;25.586;2023-05-27T05:34:58;17.57;;;8.03;;
7831;SDS011;3961;42.058;25.586;2023-05-27T05:37:24;18.63;;;8.27;;
7831;SDS011;3961;42.058;25.586;2023-05-27T05:39:49;15.77;;;8.40;;
7831;SDS011;3961;42.058;25.586;2023-05-27T05:42:15;12.10;;;8.20;;
7831;SDS011;3961;42.058;25.586;2023-05-27T05:44:41;11.70;;;7.00;;
7831;SDS011;3961;42.058;25.586;2023-05-27T05:47:06;19.07;;;8.43;;
7831;SDS011;3961;42.058;25.586;2023-05-27T05:49:32;16.23;;;8.57;;
7831;SDS011;3961;42.058;25.586;2023-05-27T05:51:57;13.20;;;8.33;;
7831;SDS011;3961;42.058;25.586;2023-05-27T05:54:23;16.57;;;10.00;;
7831;SDS011;3961;42.058;25.586;2023-05-27T05:56:48;15.33;;;8.13;;
7831;SDS011;3961;42.058;25.586;2023-05-27T05:59:14;18.97;;;10.80;;
7831;SDS011;3961;42.058;25.586;2023-05-27T06:01:39;16.23;;;8.40;;
7831;SDS011;3961;42.058;25.586;2023-05-27T06:04:05;13.80;;;8.37;;
7831;SDS011;3961;42.058;25.586;2023-05-27T06:06:31;12.07;;;8.63;;
7831;SDS011;3961;42.058;25.586;2023-05-27T06:08:57;12.83;;;8.60;;
7831;SDS011;3961;42.058;25.586;2023-05-27T06:11:22;14.77;;;7.13;;
7831;SDS011;3961;42.058;25.586;2023-05-27T06:13:48;10.93;;;7.97;;
7831;SDS011;3961;42.058;25.586;2023-05-27T06:16:13;12.30;;;6.90;;
7831;SDS011;3961;42.058;25.586;2023-05-27T06:18:39;10.73;;;7.60;;
7831;SDS011;3961;42.058;25.586;2023-05-27T06:21:05;11.23;;;6.70;;
7831;SDS011;3961;42.058;25.586;2023-05-27T06:23:30;15.93;;;7.13;;
7831;SDS011;3961;42.058;25.586;2023-05-27T06:25:56;10.00;;;6.30;;
7831;SDS011;3961;42.058;25.586;2023-05-27T06:28:21;9.70;;;5.87;;
7831;SDS011;3961;42.058;25.586;2023-05-27T06:30:47;10.07;;;6.10;;
7831;SDS011;3961;42.058;25.586;2023-05-27T06:33:12;15.17;;;6.70;;
7831;SDS011;3961;42.058;25.586;2023-05-27T06:35:38;8.80;;;6.53;;
7831;SDS011;3961;42.058;25.586;2023-05-27T06:38:04;11.57;;;6.07;;
7831;SDS011;3961;42.058;25.586;2023-05-27T06:40:30;9.10;;;5.90;;
7831;SDS011;3961;42.058;25.586;2023-05-27T06:42:56;7.93;;;6.00;;
7831;SDS011;3961;42.058;25.586;2023-05-27T06:45:21;14.07;;;7.47;;
7831;SDS011;3961;42.058;25.586;2023-05-27T06:47:47;12.30;;;6.93;;
7831;SDS011;3961;42.058;25.586;2023-05-27T06:50:12;7.17;;;5.93;;
7831;SDS011;3961;42.058;25.586;2023-05-27T06:52:38;10.73;;;6.90;;
7831;SDS011;3961;42.058;25.586;2023-05-27T06:55:04;12.93;;;6.67;;
7831;SDS011;3961;42.058;25.586;2023-05-27T06:57:29;10.70;;;7.77;;
7831;SDS011;3961;42.058;25.586;2023-05-27T06:59:55;12.53;;;7.13;;
7831;SDS011;3961;42.058;25.586;2023-05-27T07:02:21;9.37;;;5.83;;
7831;SDS011;3961;42.058;25.586;2023-05-27T07:04:46;9.63;;;6.33;;
7831;SDS011;3961;42.058;25.586;2023-05-27T07:07:11;8.37;;;6.17;;
7831;SDS011;3961;42.058;25.586;2023-05-27T07:09:37;11.37;;;5.87;;
7831;SDS011;3961;42.058;25.586;2023-05-27T07:12:03;14.83;;;6.67;;
7831;SDS011;3961;42.058;25.586;2023-05-27T07:14:28;7.97;;;6.43;;
7831;SDS011;3961;42.058;25.586;2023-05-27T07:16:54;10.90;;;6.60;;
7831;SDS011;3961;42.058;25.586;2023-05-27T07:19:20;15.10;;;7.13;;
7831;SDS011;3961;42.058;25.586;2023-05-27T07:21:47;12.53;;;6.70;;
7831;SDS011;3961;42.058;25.586;2023-05-27T07:24:13;11.63;;;6.83;;
7831;SDS011;3961;42.058;25.586;2023-05-27T07:26:38;13.60;;;6.77;;
7831;SDS011;3961;42.058;25.586;2023-05-27T07:29:05;10.63;;;6.00;;
7831;SDS011;3961;42.058;25.586;2023-05-27T07:31:30;16.63;;;7.50;;
7831;SDS011;3961;42.058;25.586;2023-05-27T07:33:56;17.57;;;7.50;;
7831;SDS011;3961;42.058;25.586;2023-05-27T07:36:21;13.50;;;7.60;;
7831;SDS011;3961;42.058;25.586;2023-05-27T07:38:47;16.60;;;8.70;;
7831;SDS011;3961;42.058;25.586;2023-05-27T07:41:12;12.10;;;6.23;;
7831;SDS011;3961;42.058;25.586;2023-05-27T07:43:38;10.33;;;6.30;;
7831;SDS011;3961;42.058;25.586;2023-05-27T07:46:04;11.43;;;6.73;;
7831;SDS011;3961;42.058;25.586;2023-05-27T07:48:30;10.40;;;7.00;;
7831;SDS011;3961;42.058;25.586;2023-05-27T07:50:56;20.13;;;13.50;;
7831;SDS011;3961;42.058;25.586;2023-05-27T07:53:21;12.17;;;7.53;;
7831;SDS011;3961;42.058;25.586;2023-05-27T07:55:47;12.27;;;8.00;;
7831;SDS011;3961;42.058;25.586;2023-05-27T07:58:12;12.90;;;7.83;;
7831;SDS011;3961;42.058;25.586;2023-05-27T08:00:38;13.23;;;8.10;;
7831;SDS011;3961;42.058;25.586;2023-05-27T08:03:04;12.40;;;8.10;;
7831;SDS011;3961;42.058;25.586;2023-05-27T08:05:29;16.23;;;8.37;;
7831;SDS011;3961;42.058;25.586;2023-05-27T08:07:55;9.07;;;7.80;;
7831;SDS011;3961;42.058;25.586;2023-05-27T08:10:20;11.23;;;7.70;;
7831;SDS011;3961;42.058;25.586;2023-05-27T08:12:46;11.00;;;7.60;;
7831;SDS011;3961;42.058;25.586;2023-05-27T08:15:11;13.43;;;8.43;;
7831;SDS011;3961;42.058;25.586;2023-05-27T08:17:37;11.33;;;7.83;;
7831;SDS011;3961;42.058;25.586;2023-05-27T08:20:03;11.10;;;8.50;;
7831;SDS011;3961;42.058;25.586;2023-05-27T08:22:29;14.00;;;8.53;;
7831;SDS011;3961;42.058;25.586;2023-05-27T08:24:54;8.63;;;7.73;;
7831;SDS011;3961;42.058;25.586;2023-05-27T08:27:20;9.57;;;8.43;;
7831;SDS011;3961;42.058;25.586;2023-05-27T08:29:46;15.90;;;9.30;;
7831;SDS011;3961;42.058;25.586;2023-05-27T08:32:11;15.53;;;8.47;;
7831;SDS011;3961;42.058;25.586;2023-05-27T08:34:37;10.43;;;8.20;;
7831;SDS011;3961;42.058;25.586;2023-05-27T08:37:03;9.17;;;7.50;;
7831;SDS011;3961;42.058;25.586;2023-05-27T08:39:30;9.90;;;7.90;;
7831;SDS011;3961;42.058;25.586;2023-05-27T08:41:56;9.87;;;8.10;;
7831;SDS011;3961;42.058;25.586;2023-05-27T08:44:25;9.20;;;8.20;;
7831;SDS011;3961;42.058;25.586;2023-05-27T08:46:50;8.90;;;8.00;;
7831;SDS011;3961;42.058;25.586;2023-05-27T08:49:16;10.90;;;7.37;;
7831;SDS011;3961;42.058;25.586;2023-05-27T08:51:43;11.13;;;7.70;;
7831;SDS011;3961;42.058;25.586;2023-05-27T08:54:11;10.50;;;7.70;;
7831;SDS011;3961;42.058;25.586;2023-05-27T08:56:36;9.37;;;8.43;;
7831;SDS011;3961;42.058;25.586;2023-05-27T08:59:04;12.57;;;7.83;;
7831;SDS011;3961;42.058;25.586;2023-05-27T09:01:29;11.10;;;8.10;;
7831;SDS011;3961;42.058;25.586;2023-05-27T09:03:58;8.83;;;7.60;;
7831;SDS011;3961;42.058;25.586;2023-05-27T09:06:24;9.67;;;7.10;;
7831;SDS011;3961;42.058;25.586;2023-05-27T09:08:49;8.50;;;7.70;;
7831;SDS011;3961;42.058;25.586;2023-05-27T09:11:33;9.17;;;7.63;;
7831;SDS011;3961;42.058;25.586;2023-05-27T09:14:00;10.77;;;6.97;;
7831;SDS011;3961;42.058;25.586;2023-05-27T09:16:26;9.73;;;7.60;;
7831;SDS011;3961;42.058;25.586;2023-05-27T09:18:51;8.53;;;6.80;;
7831;SDS011;3961;42.058;25.586;2023-05-27T09:21:17;15.63;;;8.10;;
7831;SDS011;3961;42.058;25.586;2023-05-27T09:23:42;10.27;;;7.10;;
7831;SDS011;3961;42.058;25.586;2023-05-27T09:26:08;10.00;;;7.20;;
7831;SDS011;3961;42.058;25.586;2023-05-27T09:28:37;8.53;;;7.63;;
7831;SDS011;3961;42.058;25.586;2023-05-27T09:31:04;9.07;;;6.87;;
7831;SDS011;3961;42.058;25.586;2023-05-27T09:33:32;10.40;;;7.40;;
7831;SDS011;3961;42.058;25.586;2023-05-27T09:36:00;8.23;;;6.53;;
7831;SDS011;3961;42.058;25.586;2023-05-27T09:38:29;11.27;;;6.40;;
7831;SDS011;3961;42.058;25.586;2023-05-27T09:40:59;7.37;;;5.50;;
7831;SDS011;3961;42.058;25.586;2023-05-27T09:43:26;7.60;;;5.90;;
7831;SDS011;3961;42.058;25.586;2023-05-27T09:45:54;9.27;;;5.40;;
7831;SDS011;3961;42.058;25.586;2023-05-27T09:48:26;10.30;;;5.50;;
7831;SDS011;3961;42.058;25.586;2023-05-27T09:50:55;15.87;;;5.50;;
7831;SDS011;3961;42.058;25.586;2023-05-27T09:53:22;12.07;;;4.37;;
7831;SDS011;3961;42.058;25.586;2023-05-27T09:55:48;7.67;;;4.40;;
7831;SDS011;3961;42.058;25.586;2023-05-27T09:58:14;7.67;;;4.30;;
7831;SDS011;3961;42.058;25.586;2023-05-27T10:00:41;5.53;;;3.97;;
7831;SDS011;3961;42.058;25.586;2023-05-27T10:03:10;5.87;;;4.17;;
7831;SDS011;3961;42.058;25.586;2023-05-27T10:05:36;5.57;;;3.97;;
7831;SDS011;3961;42.058;25.586;2023-05-27T10:08:02;7.17;;;4.17;;
7831;SDS011;3961;42.058;25.586;2023-05-27T10:10:28;7.93;;;4.20;;
7831;SDS011;3961;42.058;25.586;2023-05-27T10:12:54;4.77;;;3.37;;
7831;SDS011;3961;42.058;25.586;2023-05-27T10:15:29;10.13;;;4.23;;
7831;SDS011;3961;42.058;25.586;2023-05-27T10:17:59;5.13;;;3.77;;
7831;SDS011;3961;42.058;25.586;2023-05-27T10:20:30;10.17;;;5.50;;
7831;SDS011;3961;42.058;25.586;2023-05-27T10:23:14;6.70;;;3.27;;
7831;SDS011;3961;42.058;25.586;2023-05-27T10:25:48;6.03;;;3.33;;
7831;SDS011;3961;42.058;25.586;2023-05-27T10:28:31;7.37;;;3.90;;
7831;SDS011;3961;42.058;25.586;2023-05-27T10:31:07;4.93;;;3.73;;
7831;SDS011;3961;42.058;25.586;2023-05-27T10:33:37;6.53;;;3.63;;
7831;SDS011;3961;42.058;25.586;2023-05-27T10:38:34;5.57;;;3.20;;
7831;SDS011;3961;42.058;25.586;2023-05-27T10:41:01;4.70;;;3.10;;
7831;SDS011;3961;42.058;25.586;2023-05-27T10:43:29;5.23;;;3.60;;
7831;SDS011;3961;42.058;25.586;2023-05-27T10:46:04;4.50;;;3.47;;
7831;SDS011;3961;42.058;25.586;2023-05-27T10:48:32;4.33;;;3.20;;
7831;SDS011;3961;42.058;25.586;2023-05-27T10:51:00;4.83;;;3.07;;
7831;SDS011;3961;42.058;25.586;2023-05-27T10:53:27;4.57;;;3.33;;
7831;SDS011;3961;42.058;25.586;2023-05-27T10:55:53;3.77;;;3.00;;
7831;SDS011;3961;42.058;25.586;2023-05-27T10:58:22;4.57;;;3.00;;
7831;SDS011;3961;42.058;25.586;2023-05-27T11:00:48;4.87;;;2.80;;
7831;SDS011;3961;42.058;25.586;2023-05-27T11:03:27;6.27;;;3.53;;
7831;SDS011;3961;42.058;25.586;2023-05-27T11:06:03;4.67;;;2.93;;
7831;SDS011;3961;42.058;25.586;2023-05-27T11:08:31;5.07;;;3.03;;
7831;SDS011;3961;42.058;25.586;2023-05-27T11:11:01;3.97;;;2.70;;
7831;SDS011;3961;42.058;25.586;2023-05-27T11:13:39;5.73;;;3.20;;
7831;SDS011;3961;42.058;25.586;2023-05-27T11:16:07;8.70;;;3.30;;
7831;SDS011;3961;42.058;25.586;2023-05-27T11:21:06;4.70;;;3.10;;
7831;SDS011;3961;42.058;25.586;2023-05-27T11:23:36;6.87;;;3.00;;
7831;SDS011;3961;42.058;25.586;2023-05-27T11:28:56;6.57;;;4.00;;
7831;SDS011;3961;42.058;25.586;2023-05-27T11:31:28;6.43;;;3.30;;
7831;SDS011;3961;42.058;25.586;2023-05-27T11:33:56;5.33;;;3.23;;
7831;SDS011;3961;42.058;25.586;2023-05-27T11:36:25;4.20;;;3.20;;
7831;SDS011;3961;42.058;25.586;2023-05-27T11:38:55;4.60;;;3.00;;
7831;SDS011;3961;42.058;25.586;2023-05-27T11:41:23;3.43;;;3.03;;
7831;SDS011;3961;42.058;25.586;2023-05-27T11:46:17;7.33;;;3.53;;
7831;SDS011;3961;42.058;25.586;2023-05-27T11:48:43;7.43;;;4.20;;
7831;SDS011;3961;42.058;25.586;2023-05-27T11:51:10;8.70;;;3.37;;
7831;SDS011;3961;42.058;25.586;2023-05-27T11:53:46;7.20;;;3.40;;
7831;SDS011;3961;42.058;25.586;2023-05-27T11:56:12;3.67;;;3.23;;
7831;SDS011;3961;42.058;25.586;2023-05-27T11:58:38;6.03;;;3.43;;
7831;SDS011;3961;42.058;25.586;2023-05-27T12:01:04;3.80;;;3.17;;
7831;SDS011;3961;42.058;25.586;2023-05-27T12:03:30;7.63;;;3.80;;
7831;SDS011;3961;42.058;25.586;2023-05-27T12:05:57;5.17;;;3.70;;
7831;SDS011;3961;42.058;25.586;2023-05-27T12:08:23;7.90;;;3.80;;
7831;SDS011;3961;42.058;25.586;2023-05-27T12:10:49;4.67;;;3.83;;
7831;SDS011;3961;42.058;25.586;2023-05-27T12:13:19;4.13;;;3.30;;
7831;SDS011;3961;42.058;25.586;2023-05-27T12:15:49;5.13;;;3.93;;
7831;SDS011;3961;42.058;25.586;2023-05-27T12:18:15;5.27;;;3.70;;
7831;SDS011;3961;42.058;25.586;2023-05-27T12:20:41;4.67;;;3.30;;
7831;SDS011;3961;42.058;25.586;2023-05-27T12:23:07;6.40;;;3.60;;
7831;SDS011;3961;42.058;25.586;2023-05-27T12:25:32;5.17;;;3.63;;
7831;SDS011;3961;42.058;25.586;2023-05-27T12:27:58;3.60;;;3.27;;
7831;SDS011;3961;42.058;25.586;2023-05-27T12:30:23;5.83;;;4.10;;
7831;SDS011;3961;42.058;25.586;2023-05-27T12:32:49;3.90;;;3.30;;
7831;SDS011;3961;42.058;25.586;2023-05-27T12:35:14;4.00;;;3.60;;
7831;SDS011;3961;42.058;25.586;2023-05-27T12:37:40;5.30;;;3.70;;
7831;SDS011;3961;42.058;25.586;2023-05-27T12:40:06;5.13;;;3.77;;
7831;SDS011;3961;42.058;25.586;2023-05-27T12:42:35;7.13;;;3.47;;
7831;SDS011;3961;42.058;25.586;2023-05-27T12:45:00;7.10;;;3.53;;
7831;SDS011;3961;42.058;25.586;2023-05-27T12:47:26;8.27;;;3.80;;
7831;SDS011;3961;42.058;25.586;2023-05-27T12:49:51;9.20;;;3.70;;
7831;SDS011;3961;42.058;25.586;2023-05-27T12:52:17;5.27;;;3.80;;
7831;SDS011;3961;42.058;25.586;2023-05-27T12:54:42;3.87;;;3.50;;
7831;SDS011;3961;42.058;25.586;2023-05-27T12:57:08;4.80;;;3.90;;
7831;SDS011;3961;42.058;25.586;2023-05-27T12:59:33;5.40;;;3.70;;
7831;SDS011;3961;42.058;25.586;2023-05-27T13:01:59;4.77;;;3.80;;
7831;SDS011;3961;42.058;25.586;2023-05-27T13:04:24;5.20;;;3.57;;
7831;SDS011;3961;42.058;25.586;2023-05-27T13:06:50;5.37;;;3.73;;
7831;SDS011;3961;42.058;25.586;2023-05-27T13:09:15;4.33;;;3.50;;
7831;SDS011;3961;42.058;25.586;2023-05-27T13:11:41;7.00;;;3.67;;
7831;SDS011;3961;42.058;25.586;2023-05-27T13:14:07;4.70;;;3.40;;
7831;SDS011;3961;42.058;25.586;2023-05-27T13:16:33;4.73;;;3.33;;
7831;SDS011;3961;42.058;25.586;2023-05-27T13:18:59;4.80;;;3.20;;
7831;SDS011;3961;42.058;25.586;2023-05-27T13:21:24;6.43;;;3.20;;
7831;SDS011;3961;42.058;25.586;2023-05-27T13:23:51;4.20;;;3.47;;
7831;SDS011;3961;42.058;25.586;2023-05-27T13:26:17;4.63;;;3.27;;
7831;SDS011;3961;42.058;25.586;2023-05-27T13:28:43;10.27;;;3.53;;
7831;SDS011;3961;42.058;25.586;2023-05-27T13:31:08;4.03;;;3.57;;
7831;SDS011;3961;42.058;25.586;2023-05-27T13:33:34;6.47;;;3.57;;
7831;SDS011;3961;42.058;25.586;2023-05-27T13:36:00;7.93;;;3.83;;
7831;SDS011;3961;42.058;25.586;2023-05-27T13:38:25;4.90;;;3.57;;
7831;SDS011;3961;42.058;25.586;2023-05-27T13:40:50;3.97;;;3.20;;
7831;SDS011;3961;42.058;25.586;2023-05-27T13:43:16;4.77;;;3.80;;
7831;SDS011;3961;42.058;25.586;2023-05-27T13:45:42;9.30;;;3.63;;
7831;SDS011;3961;42.058;25.586;2023-05-27T13:48:08;6.13;;;3.80;;
7831;SDS011;3961;42.058;25.586;2023-05-27T13:50:33;7.03;;;3.70;;
7831;SDS011;3961;42.058;25.586;2023-05-27T13:53:00;5.10;;;3.53;;
7831;SDS011;3961;42.058;25.586;2023-05-27T13:55:25;6.43;;;3.47;;
7831;SDS011;3961;42.058;25.586;2023-05-27T13:57:51;4.90;;;3.50;;
7831;SDS011;3961;42.058;25.586;2023-05-27T14:00:17;4.20;;;3.57;;
7831;SDS011;3961;42.058;25.586;2023-05-27T14:02:43;5.77;;;3.63;;
7831;SDS011;3961;42.058;25.586;2023-05-27T14:05:09;4.50;;;3.60;;
7831;SDS011;3961;42.058;25.586;2023-05-27T14:07:42;5.80;;;4.07;;
7831;SDS011;3961;42.058;25.586;2023-05-27T14:10:11;5.53;;;3.80;;
7831;SDS011;3961;42.058;25.586;2023-05-27T14:12:37;4.43;;;3.70;;
7831;SDS011;3961;42.058;25.586;2023-05-27T14:15:03;7.13;;;4.00;;
7831;SDS011;3961;42.058;25.586;2023-05-27T14:17:29;4.63;;;4.13;;
7831;SDS011;3961;42.058;25.586;2023-05-27T14:19:56;5.77;;;3.87;;
7831;SDS011;3961;42.058;25.586;2023-05-27T14:22:22;7.20;;;4.17;;
7831;SDS011;3961;42.058;25.586;2023-05-27T14:24:48;5.93;;;3.83;;
7831;SDS011;3961;42.058;25.586;2023-05-27T14:27:14;8.43;;;3.70;;
7831;SDS011;3961;42.058;25.586;2023-05-27T14:29:39;6.70;;;3.90;;
7831;SDS011;3961;42.058;25.586;2023-05-27T14:32:05;7.90;;;4.30;;
7831;SDS011;3961;42.058;25.586;2023-05-27T14:34:32;4.27;;;3.87;;
7831;SDS011;3961;42.058;25.586;2023-05-27T14:36:57;6.20;;;3.73;;
7831;SDS011;3961;42.058;25.586;2023-05-27T14:39:23;4.30;;;3.77;;
7831;SDS011;3961;42.058;25.586;2023-05-27T14:41:49;7.00;;;3.50;;
7831;SDS011;3961;42.058;25.586;2023-05-27T14:44:14;4.83;;;3.80;;
7831;SDS011;3961;42.058;25.586;2023-05-27T14:46:40;5.13;;;4.07;;
7831;SDS011;3961;42.058;25.586;2023-05-27T14:49:05;5.50;;;4.30;;
7831;SDS011;3961;42.058;25.586;2023-05-27T14:51:31;6.53;;;3.97;;
7831;SDS011;3961;42.058;25.586;2023-05-27T14:53:56;4.43;;;4.03;;
7831;SDS011;3961;42.058;25.586;2023-05-27T14:56:22;6.27;;;4.27;;
7831;SDS011;3961;42.058;25.586;2023-05-27T14:58:48;5.60;;;4.40;;
7831;SDS011;3961;42.058;25.586;2023-05-27T15:01:13;10.23;;;4.23;;
7831;SDS011;3961;42.058;25.586;2023-05-27T15:03:39;6.00;;;3.60;;